Time;durP1;ratioP1;P1;durP2;ratioP2;P2;SDS_P1;SDS_P2;PMS_P1;PMS_P2;Temp;Humidity;BMP_temperature;BMP_pressure;BME280_temperature;BME280_humidity;BME280_pressure;Samples;Min_cycle;Max_cycle;Signal;HPM_P1;HPM_P2
2023/12/25 00:02:25;;;;;;;4.13;1.42;;;12.50;99.90;;;15.83;100.00;99136.41;5067365;28;20115;-84
2023/12/25 00:04:50;;;;;;;7.63;1.38;;;12.50;99.90;;;15.62;100.00;99150.31;5051307;28;20052;-84
2023/12/25 00:07:16;;;;;;;5.20;1.25;;;12.50;99.90;;;15.51;100.00;99137.78;5038495;28;20045;-85
2023/12/25 00:09:44;;;;;;;3.75;1.13;;;12.50;99.90;;;15.42;100.00;99151.28;5067141;28;20032;-83
2023/12/25 00:12:10;;;;;;;4.20;1.30;;;12.50;99.90;;;15.34;100.00;99154.66;5061334;28;20172;-84
2023/12/25 00:14:36;;;;;;;3.25;1.05;;;12.30;99.90;;;15.19;100.00;99131.66;5072480;28;20043;-84
2023/12/25 00:17:02;;;;;;;4.82;1.25;;;12.20;99.90;;;15.20;100.00;99136.06;5051631;28;20036;-83
2023/12/25 00:19:28;;;;;;;5.20;1.20;;;12.10;99.90;;;15.22;100.00;99155.00;5068919;28;20059;-82
2023/12/25 00:21:53;;;;;;;5.57;1.45;;;12.10;99.90;;;15.27;100.00;99121.19;5065478;28;20061;-84
2023/12/25 00:24:19;;;;;;;3.85;1.30;;;12.20;99.90;;;15.34;100.00;99119.75;5048443;28;20044;-84
2023/12/25 00:26:45;;;;;;;6.35;1.42;;;12.10;99.90;;;15.49;100.00;99129.78;5071140;28;20387;-85
2023/12/25 00:29:10;;;;;;;3.60;1.45;;;12.10;99.90;;;15.49;100.00;99129.78;5069435;28;20033;-84
2023/12/25 00:31:36;;;;;;;8.90;1.40;;;12.10;99.90;;;15.29;100.00;99129.97;5072809;28;20033;-84
2023/12/25 00:34:02;;;;;;;9.13;2.20;;;12.10;99.90;;;15.19;100.00;99147.34;5067450;28;20066;-84
2023/12/25 00:36:28;;;;;;;4.00;1.38;;;12.30;99.90;;;15.54;100.00;99126.19;5041878;28;20037;-83
2023/12/25 00:38:53;;;;;;;7.43;1.65;;;12.30;99.90;;;15.41;100.00;99130.41;5047509;28;20435;-83
2023/12/25 00:41:20;;;;;;;7.65;1.70;;;12.30;99.90;;;15.40;100.00;99120.53;5047188;28;20024;-83
2023/12/25 00:43:46;;;;;;;7.65;1.60;;;12.40;99.90;;;15.43;100.00;99141.13;5044177;28;20583;-83
2023/12/25 00:46:11;;;;;;;4.00;1.40;;;12.50;99.90;;;15.58;100.00;99138.25;5068647;28;20041;-83
2023/12/25 00:48:37;;;;;;;5.90;1.50;;;12.50;99.90;;;15.59;100.00;99117.09;5070741;28;20036;-83
2023/12/25 00:51:03;;;;;;;4.38;1.38;;;12.50;99.90;;;15.55;100.00;99127.03;5064477;28;20036;-83
2023/12/25 00:53:29;;;;;;;8.85;1.70;;;12.50;99.90;;;15.49;100.00;99146.28;5066094;28;20033;-82
2023/12/25 00:55:55;;;;;;;6.28;1.60;;;12.30;99.90;;;15.06;100.00;99138.59;5050197;28;20090;-84
2023/12/25 00:58:20;;;;;;;6.22;1.80;;;12.00;99.90;;;14.78;100.00;99146.44;5036031;28;20033;-82
2023/12/25 01:00:46;;;;;;;5.78;1.50;;;;;;;14.42;100.00;99148.47;5049440;28;20048;-83
2023/12/25 01:03:12;;;;;;;7.03;1.50;;;11.70;99.90;;;14.38;100.00;99137.25;5052503;28;20033;-84
2023/12/25 01:05:39;;;;;;;7.40;1.63;;;11.40;99.90;;;14.30;100.00;99129.56;5062333;28;20033;-83
2023/12/25 01:08:05;;;;;;;4.07;1.67;;;11.30;99.90;;;14.24;100.00;99110.38;5038845;28;20400;-84
2023/12/25 01:10:31;;;;;;;3.95;1.75;;;11.20;99.90;;;14.09;100.00;99113.19;5042292;28;20025;-84
2023/12/25 01:12:57;;;;;;;5.85;1.73;;;11.20;99.90;;;14.15;100.00;99108.50;5043661;28;20040;-84
2023/12/25 01:15:23;;;;;;;4.75;1.50;;;11.20;99.90;;;14.12;100.00;99101.66;5041640;28;20035;-84
2023/12/25 01:17:48;;;;;;;7.82;1.80;;;11.30;99.90;;;14.18;100.00;99124.38;5040588;28;20055;-86
2023/12/25 01:20:15;;;;;;;7.90;1.70;;;11.30;99.90;;;14.31;100.00;99095.56;5046799;28;20029;-85
2023/12/25 01:22:41;;;;;;;5.05;1.50;;;11.40;99.90;;;14.36;100.00;99079.09;5058162;28;20111;-86
2023/12/25 01:25:07;;;;;;;4.80;1.60;;;11.40;99.90;;;14.33;100.00;99085.16;5065016;28;20063;-86
2023/12/25 01:27:33;;;;;;;5.55;1.63;;;11.40;99.90;;;14.56;100.00;99085.56;5066319;28;20032;-84
2023/12/25 01:29:59;;;;;;;5.38;1.73;;;11.50;99.90;;;14.45;100.00;99085.63;5032825;28;20037;-86
2023/12/25 01:32:25;;;;;;;3.80;1.13;;;11.50;99.90;;;14.38;100.00;99083.19;5065629;28;20040;-85
2023/12/25 01:34:51;;;;;;;3.15;1.30;;;11.60;99.90;;;14.60;100.00;99119.63;5063676;28;20036;-85
2023/12/25 01:37:17;;;;;;;3.92;1.17;;;11.70;99.90;;;14.70;100.00;99130.53;5039818;28;20045;-85
2023/12/25 01:39:42;;;;;;;2.78;1.13;;;11.70;99.90;;;14.94;100.00;99111.50;5062990;28;20040;-85
2023/12/25 01:42:08;;;;;;;4.70;1.38;;;11.70;99.90;;;14.61;100.00;99099.31;5044497;28;20037;-85
2023/12/25 01:44:34;;;;;;;3.22;1.17;;;11.90;99.90;;;15.04;100.00;99104.31;5067494;28;20044;-85
2023/12/25 01:46:59;;;;;;;3.97;1.20;;;11.90;99.90;;;14.79;100.00;99101.41;5061451;28;20037;-86
2023/12/25 01:49:25;;;;;;;6.07;1.40;;;11.90;99.90;;;14.81;100.00;99110.19;5040347;28;20385;-85
2023/12/25 01:51:51;;;;;;;4.28;1.40;;;11.90;99.90;;;14.85;100.00;99153.53;5067387;28;20029;-85
2023/12/25 01:54:17;;;;;;;4.68;1.02;;;12.00;99.90;;;14.84;100.00;99133.53;5036004;28;20142;-85
2023/12/25 01:56:43;;;;;;;3.72;1.10;;;12.10;99.90;;;15.20;100.00;99132.50;5032844;28;20127;-84
2023/12/25 01:59:09;;;;;;;4.28;1.10;;;12.10;99.90;;;15.38;100.00;99122.75;5058500;28;20037;-87
2023/12/25 02:01:36;;;;;;;3.72;1.20;;;12.10;99.90;;;15.36;100.00;99135.97;5039795;28;20384;-85
2023/12/25 02:04:02;;;;;;;4.80;1.20;;;12.10;99.90;;;15.14;100.00;99155.63;5047307;28;20585;-87
2023/12/25 02:06:29;;;;;;;4.43;1.13;;;12.10;99.90;;;15.24;100.00;99130.81;5038140;28;20083;-86
2023/12/25 02:08:55;;;;;;;3.67;1.20;;;12.20;99.90;;;14.95;100.00;99120.56;5064446;28;20120;-86
2023/12/25 02:11:21;;;;;;;4.07;1.02;;;12.30;99.90;;;15.36;100.00;99113.97;5043759;28;20036;-85
2023/12/25 02:13:47;;;;;;;5.00;1.15;;;12.30;99.90;;;15.19;100.00;99117.13;5070260;28;20036;-84
2023/12/25 02:16:13;;;;;;;4.55;1.30;;;12.30;99.90;;;15.30;100.00;99120.63;5058977;28;20146;-85
2023/12/25 02:18:39;;;;;;;5.60;1.10;;;12.30;99.90;;;15.29;100.00;99125.28;5048422;28;20064;-85
2023/12/25 02:21:05;;;;;;;3.50;1.00;;;12.40;99.90;;;15.29;100.00;99116.22;5035035;28;20118;-85
2023/12/25 02:23:37;;;;;;;4.30;1.10;;;12.40;99.90;;;15.60;100.00;99140.72;5027622;28;20044;-85
2023/12/25 02:26:05;;;;;;;3.35;0.80;;;12.40;99.90;;;15.38;100.00;99139.25;5059505;28;20048;-85
2023/12/25 02:28:31;;;;;;;2.63;0.80;;;12.40;99.90;;;15.66;100.00;99140.41;5041750;28;20025;-86
2023/12/25 02:30:58;;;;;;;3.22;0.90;;;12.40;99.90;;;15.66;100.00;99145.91;5044933;28;20503;-85
2023/12/25 02:33:24;;;;;;;4.67;1.50;;;12.40;99.90;;;15.41;100.00;99135.91;5065272;28;20033;-84
2023/12/25 02:35:50;;;;;;;3.65;1.13;;;12.50;99.90;;;15.61;100.00;99159.66;5050944;28;20305;-84
2023/12/25 02:38:15;;;;;;;5.57;1.10;;;12.40;99.90;;;15.48;100.00;99160.31;5063061;28;20028;-85
2023/12/25 02:40:41;;;;;;;5.22;1.02;;;12.50;99.90;;;15.42;100.00;99166.97;5037487;28;20035;-84
2023/12/25 02:43:08;;;;;;;4.43;1.10;;;12.50;99.90;;;15.56;100.00;99187.19;5017422;28;20497;-85
2023/12/25 02:45:34;;;;;;;2.60;1.00;;;12.40;99.90;;;15.50;100.00;99152.63;5034075;28;20040;-87
2023/12/25 02:47:59;;;;;;;5.25;1.17;;;12.40;99.90;;;15.29;100.00;99174.72;5067754;28;20123;-84
2023/12/25 02:50:25;;;;;;;4.40;1.00;;;12.40;99.90;;;15.33;100.00;99175.81;5065843;28;20045;-84
2023/12/25 02:52:51;;;;;;;4.00;0.82;;;12.40;99.90;;;15.14;100.00;99178.41;5060215;28;20048;-84
2023/12/25 02:55:16;;;;;;;2.95;1.00;;;12.40;99.90;;;15.01;100.00;99157.88;5061973;28;20045;-84
2023/12/25 02:57:42;;;;;;;5.80;1.02;;;12.40;99.90;;;15.25;100.00;99176.41;5048244;28;20033;-84
2023/12/25 03:00:09;;;;;;;4.57;1.15;;;12.40;99.90;;;15.49;100.00;99183.94;5049620;28;20029;-84
2023/12/25 03:02:34;;;;;;;4.47;1.00;;;12.30;99.90;;;15.23;100.00;99187.66;5055051;28;20037;-84
2023/12/25 03:05:00;;;;;;;3.88;0.95;;;12.30;99.90;;;15.56;100.00;99183.66;5065482;28;20044;-84
2023/12/25 03:07:26;;;;;;;4.68;1.08;;;12.30;99.90;;;15.59;100.00;99172.06;5046800;28;20499;-83
2023/12/25 03:09:51;;;;;;;3.75;1.20;;;12.20;99.90;;;15.04;100.00;99182.00;5046775;28;20043;-83
2023/12/25 03:12:17;;;;;;;4.45;1.10;;;12.30;99.90;;;15.29;100.00;99207.69;5049400;28;20387;-83
2023/12/25 03:14:43;;;;;;;6.18;1.35;;;12.30;99.90;;;14.89;100.00;99206.81;5048775;28;20040;-84
2023/12/25 03:17:08;;;;;;;5.45;1.27;;;12.30;99.90;;;15.11;100.00;99228.41;5052617;28;20047;-84
2023/12/25 03:19:34;;;;;;;5.25;1.27;;;12.30;99.90;;;14.91;100.00;99186.19;5072580;28;20137;-84
2023/12/25 03:22:00;;;;;;;4.63;1.08;;;12.30;99.90;;;15.23;100.00;99195.91;5063868;28;20028;-83
2023/12/25 03:24:26;;;;;;;7.30;1.45;;;12.30;99.90;;;15.20;100.00;99180.00;5060100;28;20041;-83
2023/12/25 03:26:51;;;;;;;5.80;1.38;;;12.30;99.90;;;15.36;100.00;99188.97;5058003;28;20060;-84
2023/12/25 03:29:17;;;;;;;4.95;1.00;;;12.20;99.90;;;15.04;100.00;99209.47;5061730;28;20036;-85
2023/12/25 03:31:44;;;;;;;4.32;0.93;;;12.20;99.90;;;15.38;100.00;99195.03;5073012;28;20540;-84
2023/12/25 03:34:18;;;;;;;6.10;1.23;;;12.20;99.90;;;15.19;100.00;99199.53;5070682;28;20078;-82
2023/12/25 03:36:47;;;;;;;2.40;0.68;;;12.20;99.90;;;14.98;100.00;99196.88;5033308;28;20032;-85
2023/12/25 03:39:12;;;;;;;4.70;0.95;;;12.20;99.90;;;15.26;100.00;99229.44;5062208;28;20033;-83
2023/12/25 03:41:38;;;;;;;4.80;1.00;;;12.20;99.90;;;14.73;100.00;99215.09;5045614;28;20063;-84
2023/12/25 03:44:04;;;;;;;6.00;0.90;;;12.20;99.90;;;14.98;100.00;99202.38;5063384;28;20025;-85
2023/12/25 03:46:30;;;;;;;4.07;0.98;;;12.20;99.90;;;15.30;100.00;99203.84;5060912;28;20070;-84
2023/12/25 03:48:56;;;;;;;3.50;1.00;;;12.20;99.90;;;14.96;100.00;99221.84;5067500;28;20036;-84
2023/12/25 03:51:22;;;;;;;4.60;1.17;;;12.20;99.90;;;15.23;100.00;99225.31;5068278;28;20135;-84
2023/12/25 03:53:48;;;;;;;2.42;1.00;;;12.10;99.90;;;15.02;100.00;99221.84;5056508;28;20029;-84
2023/12/25 03:56:22;;;;;;;3.55;1.20;;;12.10;99.90;;;14.98;100.00;99246.31;5039806;28;20489;-85
2023/12/25 03:58:47;;;;;;;2.92;0.98;;;12.10;99.90;;;14.68;100.00;99226.88;5070632;28;20507;-86
2023/12/25 04:01:14;;;;;;;4.85;1.20;;;12.20;99.90;;;14.94;100.00;99210.34;5028819;28;20028;-84
2023/12/25 04:03:40;;;;;;;4.70;1.10;;;12.10;99.90;;;15.03;100.00;99223.50;5049248;28;20075;-82
2023/12/25 04:06:06;;;;;;;4.10;1.00;;;12.10;99.90;;;15.24;100.00;99210.47;5050485;28;20077;-83
2023/12/25 04:08:32;;;;;;;5.85;1.20;;;12.10;99.90;;;14.94;100.00;99229.56;5048455;28;20086;-84
2023/12/25 04:10:57;;;;;;;3.90;0.77;;;12.10;99.90;;;15.13;100.00;99230.88;5044861;28;20039;-84
2023/12/25 04:13:23;;;;;;;3.63;0.98;;;12.20;99.90;;;14.55;100.00;99227.47;5036135;28;20045;-84
2023/12/25 04:15:49;;;;;;;2.42;0.70;;;12.20;99.90;;;14.89;100.00;99239.75;5038702;28;20467;-86
2023/12/25 04:18:14;;;;;;;4.25;1.25;;;12.20;99.90;;;14.36;100.00;99236.28;5049373;28;20044;-84
2023/12/25 04:20:40;;;;;;;6.50;0.98;;;12.20;99.90;;;14.57;100.00;99232.66;5071754;28;20027;-86
2023/12/25 04:23:06;;;;;;;3.28;0.82;;;12.20;99.90;;;14.71;100.00;99246.66;5049204;28;20037;-85
2023/12/25 04:25:32;;;;;;;4.78;0.80;;;12.10;99.90;;;14.46;100.00;99238.19;5038844;28;20167;-85
2023/12/25 04:27:58;;;;;;;5.78;1.08;;;12.10;99.90;;;14.60;100.00;99223.91;5069824;28;20040;-85
2023/12/25 04:30:24;;;;;;;3.30;0.70;;;12.20;99.90;;;14.46;100.00;99224.47;5040607;28;20136;-86
2023/12/25 04:32:50;;;;;;;4.05;1.10;;;12.10;99.90;;;14.19;100.00;99250.28;5048262;28;20177;-83
2023/12/25 04:35:16;;;;;;;5.18;0.98;;;12.00;99.90;;;14.20;100.00;99253.88;5069795;28;20488;-85
2023/12/25 04:37:42;;;;;;;3.40;0.75;;;12.00;99.90;;;14.61;100.00;99242.00;5060026;28;20039;-85
2023/12/25 04:40:08;;;;;;;4.72;0.98;;;11.90;99.90;;;14.23;100.00;99265.09;5068091;28;20090;-85
2023/12/25 04:42:34;;;;;;;5.05;0.93;;;11.90;99.90;;;14.86;100.00;99256.78;5060381;28;20029;-84
2023/12/25 04:45:00;;;;;;;2.33;0.70;;;11.90;99.90;;;14.57;100.00;99293.03;5060257;28;20049;-85
2023/12/25 04:47:26;;;;;;;2.95;0.80;;;12.00;99.90;;;14.59;100.00;99266.97;5061614;28;20029;-83
2023/12/25 04:49:52;;;;;;;3.17;0.90;;;11.90;99.90;;;14.67;100.00;99263.66;5060332;28;20029;-83
2023/12/25 04:52:17;;;;;;;3.13;0.95;;;12.00;99.90;;;14.84;100.00;99267.22;5065316;28;20095;-84
2023/12/25 04:54:43;;;;;;;6.65;1.30;;;11.90;99.90;;;14.98;100.00;99275.66;5049691;28;20043;-83
2023/12/25 04:57:09;;;;;;;4.28;0.88;;;11.90;99.90;;;14.70;100.00;99277.91;5057823;28;20024;-84
2023/12/25 04:59:34;;;;;;;5.18;1.08;;;11.90;99.90;;;14.70;100.00;99300.72;5068184;28;20106;-83
2023/12/25 05:02:00;;;;;;;5.18;1.00;;;11.90;99.90;;;14.44;100.00;99269.72;5042827;28;20059;-84
2023/12/25 05:04:27;;;;;;;5.40;0.98;;;11.90;99.90;;;14.85;100.00;99285.31;5065529;28;20140;-83
2023/12/25 05:06:53;;;;;;;4.22;0.88;;;11.80;99.90;;;14.87;100.00;99283.94;5044947;28;20037;-83
2023/12/25 05:09:19;;;;;;;3.65;0.98;;;11.70;99.90;;;14.60;100.00;99295.25;5070737;28;20048;-83
2023/12/25 05:11:45;;;;;;;4.70;0.80;;;11.60;99.90;;;14.26;100.00;99296.63;5070980;28;20082;-84
2023/12/25 05:14:10;;;;;;;4.95;1.17;;;11.50;99.90;;;14.37;100.00;99297.47;5046181;28;20499;-82
2023/12/25 05:16:36;;;;;;;5.65;1.95;;;11.30;99.90;;;14.19;100.00;99321.59;5052961;28;20033;-84
2023/12/25 05:19:02;;;;;;;3.85;1.17;;;11.20;99.90;;;13.79;100.00;99298.50;5070923;28;20047;-84
2023/12/25 05:21:27;;;;;;;5.03;1.30;;;11.10;99.90;;;13.90;100.00;99308.41;5056949;28;20081;-83
2023/12/25 05:23:53;;;;;;;8.40;1.38;;;11.00;99.90;;;13.90;100.00;99321.28;5057243;28;20036;-83
2023/12/25 05:26:20;;;;;;;6.30;1.38;;;11.00;99.90;;;13.94;100.00;99309.50;5040515;28;20430;-83
2023/12/25 05:28:46;;;;;;;7.22;1.27;;;10.90;99.90;;;13.61;100.00;99308.06;5057153;28;20447;-83
2023/12/25 05:31:13;;;;;;;6.70;1.60;;;10.80;99.90;;;13.95;100.00;99299.38;5041061;28;20135;-85
2023/12/25 05:33:39;;;;;;;5.57;1.25;;;10.80;99.90;;;13.98;100.00;99317.19;5067695;28;20036;-83
2023/12/25 05:36:05;;;;;;;4.80;1.10;;;10.80;99.90;;;13.72;100.00;99308.91;5070043;28;20029;-82
2023/12/25 05:38:30;;;;;;;7.20;1.85;;;10.80;99.90;;;13.89;100.00;99309.50;5060601;28;20464;-84
2023/12/25 05:40:56;;;;;;;7.55;1.27;;;10.80;99.90;;;13.26;100.00;99290.38;5046700;28;20067;-84
2023/12/25 05:43:22;;;;;;;6.28;1.20;;;10.80;99.90;;;13.52;100.00;99322.28;5066032;28;20040;-84
2023/12/25 05:45:48;;;;;;;4.60;1.10;;;10.80;99.90;;;13.56;100.00;99306.13;5042708;28;20414;-85
2023/12/25 05:48:13;;;;;;;3.70;1.00;;;10.60;99.90;;;13.43;100.00;99310.22;5064563;28;20039;-85
2023/12/25 05:50:39;;;;;;;5.38;1.30;;;10.60;99.90;;;13.58;100.00;99331.34;5048174;28;20036;-83
2023/12/25 05:53:05;;;;;;;5.50;1.35;;;10.50;99.90;;;13.45;100.00;99294.31;5047022;28;20086;-85
2023/12/25 05:55:31;;;;;;;5.68;1.33;;;10.40;99.90;;;13.30;100.00;99332.56;5040161;28;20044;-83
2023/12/25 05:57:57;;;;;;;8.10;1.92;;;10.40;99.90;;;13.20;100.00;99358.81;5055862;28;20543;-85
2023/12/25 06:00:23;;;;;;;7.47;1.60;;;10.40;99.90;;;13.43;100.00;99351.28;5059842;28;20488;-84
2023/12/25 06:02:48;;;;;;;6.07;1.52;;;10.40;99.90;;;13.14;100.00;99342.63;5036661;28;20056;-85
2023/12/25 06:05:14;;;;;;;6.47;1.30;;;10.40;99.90;;;13.15;100.00;99338.81;5059138;28;20148;-85
2023/12/25 06:07:40;;;;;;;4.90;1.40;;;10.30;99.90;;;12.99;100.00;99322.28;5040293;28;20041;-84
2023/12/25 06:10:07;;;;;;;7.85;1.40;;;10.20;99.90;;;13.21;100.00;99321.28;5066372;28;20036;-83
2023/12/25 06:12:32;;;;;;;6.22;1.70;;;10.20;99.90;;;13.28;100.00;99352.03;5064926;28;20036;-84
2023/12/25 06:14:58;;;;;;;7.15;1.80;;;10.10;99.90;;;13.24;100.00;99356.34;5053018;28;20087;-83
2023/12/25 06:17:24;;;;;;;6.20;1.63;;;10.20;99.90;;;13.11;100.00;99348.63;5052190;28;20115;-84
2023/12/25 06:19:50;;;;;;;7.05;1.60;;;10.20;99.90;;;13.23;100.00;99349.25;5068374;28;20041;-83
2023/12/25 06:22:15;;;;;;;4.88;1.50;;;10.20;99.90;;;13.04;100.00;99341.50;5065698;28;20032;-84
2023/12/25 06:24:41;;;;;;;6.28;1.80;;;10.10;99.90;;;13.09;100.00;99347.00;5047591;28;20033;-85
2023/12/25 06:27:07;;;;;;;8.40;1.60;;;10.20;99.90;;;13.23;100.00;99368.41;5044445;28;20438;-84
2023/12/25 06:29:32;;;;;;;6.70;1.58;;;10.20;99.90;;;13.20;100.00;99369.78;5053638;28;20045;-85
2023/12/25 06:31:58;;;;;;;5.68;1.50;;;10.20;99.90;;;13.33;100.00;99364.91;5069509;28;20028;-84
2023/12/25 06:34:24;;;;;;;5.43;1.40;;;10.20;99.90;;;13.21;100.00;99354.16;5061270;28;20039;-85
2023/12/25 06:36:49;;;;;;;5.22;1.30;;;10.20;99.90;;;13.32;100.00;99355.03;5049601;28;20101;-85
2023/12/25 06:39:16;;;;;;;6.43;1.50;;;10.20;99.90;;;13.22;100.00;99350.31;5068029;28;22136;-85
2023/12/25 06:41:42;;;;;;;5.20;1.73;;;10.30;99.90;;;13.28;100.00;99353.94;5038034;28;20032;-84
2023/12/25 06:44:07;;;;;;;6.63;1.60;;;10.40;99.90;;;13.45;100.00;99360.06;5047877;28;20514;-82
2023/12/25 06:46:35;;;;;;;8.52;1.60;;;10.40;99.90;;;13.48;100.00;99362.28;5057553;28;20117;-83
2023/12/25 06:49:01;;;;;;;;;;;10.40;99.90;;;13.59;100.00;99371.34;5033526;28;20334;-84
2023/12/25 06:51:27;;;;;;;6.80;1.67;;;10.40;99.90;;;13.59;100.00;99368.63;5057638;28;19923;-84
2023/12/25 06:53:52;;;;;;;6.85;1.48;;;10.40;99.90;;;13.41;100.00;99380.00;5054566;28;20043;-85
2023/12/25 06:56:18;;;;;;;6.38;1.95;;;10.40;99.90;;;13.63;100.00;99388.91;5054139;28;20025;-83
2023/12/25 06:58:44;;;;;;;8.65;2.08;;;10.40;99.90;;;13.73;100.00;99387.28;5070261;28;20051;-84
2023/12/25 07:01:10;;;;;;;5.38;1.40;;;10.50;99.90;;;13.74;100.00;99381.56;5036431;28;20392;-84
2023/12/25 07:03:36;;;;;;;9.30;1.70;;;10.50;99.90;;;13.91;100.00;99383.22;5069301;28;20037;-87
2023/12/25 07:06:01;;;;;;;8.95;1.60;;;10.50;99.90;;;13.80;100.00;99404.31;5070268;28;20471;-87
2023/12/25 07:08:27;;;;;;;8.48;1.50;;;10.50;99.90;;;13.82;100.00;99407.63;5060157;28;20036;-85
2023/12/25 07:10:54;;;;;;;7.07;1.88;;;10.50;99.90;;;13.75;100.00;99415.25;5049476;28;20045;-82
2023/12/25 07:13:20;;;;;;;5.47;1.40;;;10.60;99.90;;;13.64;100.00;99414.38;5066210;28;20029;-83
2023/12/25 07:15:46;;;;;;;5.78;1.50;;;10.60;99.90;;;13.74;100.00;99430.03;5073543;28;20304;-83
2023/12/25 07:18:12;;;;;;;7.45;1.70;;;10.60;99.90;;;13.50;100.00;99414.88;5045765;28;20400;-83
2023/12/25 07:20:37;;;;;;;5.35;1.50;;;10.50;99.90;;;13.09;100.00;99431.88;5067391;28;20033;-84
2023/12/25 07:23:03;;;;;;;5.80;1.42;;;10.60;99.90;;;13.30;100.00;99414.72;5027784;28;20033;-84
2023/12/25 07:25:29;;;;;;;7.78;1.40;;;10.60;99.90;;;13.44;100.00;99407.72;5066409;28;20051;-84
2023/12/25 07:27:55;;;;;;;7.68;1.63;;;10.50;99.90;;;13.62;100.00;99435.75;5068768;28;20036;-84
2023/12/25 07:30:21;;;;;;;5.63;1.60;;;10.50;99.90;;;13.66;100.00;99439.63;5069716;28;20079;-82
2023/12/25 07:32:46;;;;;;;7.70;1.58;;;10.50;99.90;;;13.81;100.00;99450.63;5068871;28;20075;-80
2023/12/25 07:35:12;;;;;;;6.75;1.50;;;10.50;99.90;;;13.33;100.00;99444.31;5062226;28;20044;-84
2023/12/25 07:37:38;;;;;;;5.32;1.73;;;10.50;99.90;;;13.72;100.00;99451.41;5063352;28;20090;-84
2023/12/25 07:40:05;;;;;;;5.45;1.52;;;10.50;99.90;;;12.94;100.00;99449.00;5051908;28;20041;-83
2023/12/25 07:42:31;;;;;;;9.70;1.75;;;10.50;99.90;;;13.28;100.00;99463.47;5060069;28;20389;-83
2023/12/25 07:44:57;;;;;;;9.10;1.77;;;10.40;99.90;;;13.36;100.00;99466.53;5021387;28;20037;-84
2023/12/25 07:47:22;;;;;;;6.55;1.67;;;10.30;99.90;;;13.01;100.00;99435.09;5071448;28;20086;-82
2023/12/25 07:49:48;;;;;;;7.65;1.90;;;10.20;99.90;;;13.12;100.00;99416.81;5051817;28;20040;-82
2023/12/25 07:52:14;;;;;;;11.25;1.90;;;10.10;99.90;;;12.90;100.00;99441.56;5057626;28;20036;-84
2023/12/25 07:54:40;;;;;;;7.63;1.67;;;10.00;99.90;;;12.73;100.00;99441.72;5068961;28;20051;-82
2023/12/25 07:57:05;;;;;;;7.43;1.75;;;10.00;99.90;;;12.40;100.00;99460.81;5022774;28;20480;-82
2023/12/25 07:59:31;;;;;;;5.22;1.67;;;10.00;99.90;;;12.90;100.00;99474.41;5049081;28;20043;-82
2023/12/25 08:01:57;;;;;;;7.30;1.48;;;10.00;99.90;;;13.01;100.00;99475.31;5063200;28;20044;-83
2023/12/25 08:04:23;;;;;;;6.03;1.40;;;10.00;99.90;;;12.97;100.00;99483.22;5056828;28;20056;-82
2023/12/25 08:06:49;;;;;;;8.23;1.30;;;10.00;99.90;;;12.79;100.00;99471.59;5059977;28;20037;-83
2023/12/25 08:09:14;;;;;;;9.00;1.48;;;10.00;99.90;;;12.94;100.00;99479.13;5071770;28;20565;-80
2023/12/25 08:11:40;;;;;;;5.20;1.63;;;10.10;99.90;;;13.04;100.00;99477.53;5067209;28;20078;-82
2023/12/25 08:14:06;;;;;;;3.72;1.38;;;10.10;99.90;;;13.07;100.00;99477.84;5069209;28;20066;-84
2023/12/25 08:16:32;;;;;;;5.45;1.33;;;10.00;99.90;;;12.73;100.00;99494.53;5043743;28;20051;-83
2023/12/25 08:18:57;;;;;;;7.22;1.52;;;10.10;99.90;;;12.85;100.00;99488.88;5071192;28;20035;-82
2023/12/25 08:21:23;;;;;;;5.80;1.40;;;10.00;99.90;;;12.97;100.00;99504.31;5052705;28;20037;-79
2023/12/25 08:23:49;;;;;;;5.97;1.40;;;10.10;99.90;;;13.20;100.00;99516.81;5052693;28;20082;-81
2023/12/25 08:26:15;;;;;;;5.25;1.35;;;10.10;99.90;;;12.42;100.00;99523.50;5066879;28;20056;-81
2023/12/25 08:28:41;;;;;;;4.78;1.02;;;10.10;99.90;;;12.82;100.00;99524.16;5037095;28;20029;-81
2023/12/25 08:31:07;;;;;;;5.93;1.25;;;10.20;99.90;;;13.19;100.00;99515.16;5068818;28;20034;-80
2023/12/25 08:33:35;;;;;;;5.72;0.95;;;10.20;99.90;;;12.79;100.00;99509.91;5065619;28;20124;-79
2023/12/25 08:36:01;;;;;;;5.13;1.20;;;10.20;99.90;;;13.27;100.00;99495.53;5064564;28;20107;-80
2023/12/25 08:38:27;;;;;;;9.93;1.77;;;10.20;99.90;;;13.13;100.00;99518.97;5064185;28;20111;-79
2023/12/25 08:40:53;;;;;;;6.70;1.40;;;10.30;99.90;;;13.28;100.00;99510.88;5062466;28;20067;-80
2023/12/25 08:43:18;;;;;;;3.92;1.13;;;10.30;99.90;;;13.08;100.00;99493.19;5066383;28;20024;-79
2023/12/25 08:45:44;;;;;;;9.15;1.75;;;10.30;99.90;;;13.37;100.00;99500.22;5070599;28;22433;-79
2023/12/25 08:48:10;;;;;;;9.30;1.40;;;10.30;99.90;;;13.32;100.00;99503.78;5069168;28;20033;-79
2023/12/25 08:50:36;;;;;;;5.80;1.25;;;10.40;99.90;;;13.38;100.00;99504.63;5070758;28;20029;-79
2023/12/25 08:53:02;;;;;;;8.40;1.65;;;10.50;99.90;;;13.31;100.00;99514.97;5070329;28;20051;-79
2023/12/25 08:55:27;;;;;;;4.82;1.20;;;10.50;99.90;;;13.27;100.00;99522.06;5070568;28;20039;-79
2023/12/25 08:57:53;;;;;;;4.97;1.45;;;10.50;99.90;;;13.76;100.00;99542.97;5036742;28;20060;-80
2023/12/25 09:00:20;;;;;;;6.70;1.42;;;10.50;99.90;;;13.61;100.00;99547.28;5058894;28;20037;-79
2023/12/25 09:02:46;;;;;;;6.07;1.40;;;10.60;99.90;;;13.75;100.00;99533.94;5057564;28;20056;-80
2023/12/25 09:05:12;;;;;;;9.18;1.42;;;10.60;99.90;;;13.80;100.00;99541.38;5062900;28;20068;-79
2023/12/25 09:07:37;;;;;;;11.07;1.85;;;10.60;99.90;;;13.88;100.00;99542.78;5061105;28;20048;-79
2023/12/25 09:10:06;;;;;;;7.05;1.45;;;10.60;99.90;;;13.59;100.00;99551.38;5064756;28;20041;-78
2023/12/25 09:12:33;;;;;;;7.47;1.77;;;10.70;99.90;;;13.68;100.00;99554.44;5069802;28;20509;-79
2023/12/25 09:14:58;;;;;;;8.48;1.80;;;10.70;99.90;;;13.68;100.00;99558.03;5060404;28;20060;-80
2023/12/25 09:17:24;;;;;;;6.13;1.42;;;10.70;99.90;;;13.73;100.00;99562.69;5065784;28;20052;-78
2023/12/25 09:19:50;;;;;;;6.40;1.45;;;10.70;99.90;;;13.74;100.00;99564.34;5063381;28;20063;-79
2023/12/25 09:22:17;;;;;;;6.05;1.40;;;10.70;99.90;;;13.64;100.00;99560.47;5060870;28;20118;-77
2023/12/25 09:24:44;;;;;;;6.90;1.50;;;10.70;99.90;;;13.82;100.00;99563.88;5043661;28;20047;-77
2023/12/25 09:27:10;;;;;;;6.93;1.40;;;10.80;99.90;;;13.72;100.00;99570.09;5069312;28;21020;-78
2023/12/25 09:29:36;;;;;;;5.40;1.65;;;10.80;99.90;;;13.48;100.00;99580.59;5068541;28;20036;-79
2023/12/25 09:32:02;;;;;;;4.80;1.30;;;10.80;99.90;;;13.61;100.00;99577.44;5053277;28;20052;-78
2023/12/25 09:34:28;;;;;;;5.80;1.40;;;10.90;99.90;;;12.97;100.00;99562.63;5062849;28;20067;-80
2023/12/25 09:36:55;;;;;;;9.05;1.45;;;10.90;99.90;;;13.52;100.00;99577.09;5051682;28;20074;-78
2023/12/25 09:39:21;;;;;;;7.50;1.40;;;11.00;99.90;;;13.79;100.00;99573.44;5059266;28;20127;-79
2023/12/25 09:41:47;;;;;;;9.73;1.73;;;11.00;99.90;;;13.99;100.00;99582.88;5069825;28;20028;-79
2023/12/25 09:44:13;;;;;;;6.38;1.20;;;11.00;99.90;;;13.56;100.00;99593.00;5069305;28;20059;-78
2023/12/25 09:46:39;;;;;;;6.30;1.38;;;11.10;99.90;;;13.73;100.00;99581.88;5065973;28;20028;-79
2023/12/25 09:49:06;;;;;;;5.95;1.27;;;11.30;99.90;;;14.15;100.00;99583.78;5038826;28;20024;-78
2023/12/25 09:51:33;;;;;;;5.35;1.20;;;11.30;99.90;;;13.93;100.00;99594.91;5066303;28;20041;-78
2023/12/25 09:53:59;;;;;;;6.97;1.13;;;11.20;99.90;;;13.64;100.00;99595.25;5064221;28;20040;-79
2023/12/25 09:56:27;;;;;;;6.03;1.50;;;11.20;99.90;;;14.08;100.00;99596.91;5051018;28;20021;-78
2023/12/25 09:58:56;;;;;;;5.95;1.55;;;11.30;99.90;;;14.60;100.00;99597.13;5068764;28;20040;-78
2023/12/25 10:01:25;;;;;;;9.73;1.38;;;11.40;99.90;;;14.61;100.00;99605.09;5065935;28;20024;-79
2023/12/25 10:03:53;;;;;;;4.57;1.35;;;11.60;99.90;;;14.13;100.00;99591.44;5069471;28;20059;-79
2023/12/25 10:06:21;;;;;;;7.15;1.70;;;11.50;99.90;;;14.58;100.00;99604.78;5047046;28;20059;-78
2023/12/25 10:08:47;;;;;;;8.35;1.45;;;11.60;99.90;;;14.61;100.00;99587.81;5069313;28;20041;-79